Hillview, Illinois
Current Conditions -  °F | °C
As of 3:55 PM on Tuesday 25 Nov 2014 (Local Time) from KPPQ Reporting Station
Clear Clear  
Wind Chill: 33°   Ceiling: Unl
Heat Index: 37°   Visibility: 10mi
Dew Point: 22°   Wind: 5mph
Humidity: 56%   Direction: 260°W
Pressure: 30.15"   Gusts: NA
Location:  39.45°N, 90.54°W
Report Text: KPPQ 252155Z AUTO 26004KT 10SM CLR 03/M05 A3015 RMK AO2 T00261053
Loading
Personal Weather Stations






























Interactive Weather Map New forecast layout! Learn more

10-Day Weather Forecast

Advertisements
Track Severe Weather on mobile